6B9 weather

Skaneateles Aero Drome Airport
Skaneateles, New York, United States

Public forecast

Using degrees Fahrenheit for public forecast. Weather courtesy of forecast.io.

Closest aviation weather report (METAR) to Skaneateles Aero Drome Airport

Report is more than 6 hours old.

Closest report is Syracuse Hancock International Airport, 18.9 nm (34.9 km) NE. Retrieved 2019/11/11 23:54 UTC (1 day ago):

KSYR 122354Z 29017KT 9SM -SN BKN044 OVC070 M05/M13 A3014 RMK AO2 PK WND 28028/2302 SLP209 4/003 P0000 60000 T10501133 11028 21056 51011

Closest aviation forecast (TAF) to Skaneateles Aero Drome Airport

Closest forecast is Syracuse Hancock International Airport, 18.9 nm (34.9 km) NE. Retrieved 2019-11-13 00:00 UTC (58 minutes ago):

TAF COR KSYR 122359Z 1300/1324 29012G20KT 4SM -SN OVC035 FM130100 29012G20KT 1SM -SN OVC025 TEMPO 1301/1304 1/2SM SN OVC015 FM130700 29008KT 6SM -SN OVC025 FM131600 28006KT P6SM BKN035